createdAt,value
2023-02-03T00:01:44.922Z,79.75
2023-02-03T00:04:11.578Z,79.78
2023-02-03T00:06:38.178Z,79.19
2023-02-03T00:09:04.979Z,81.35
2023-02-03T00:11:31.674Z,81.83
2023-02-03T00:13:58.363Z,83.51
2023-02-03T00:16:25.029Z,82.18
2023-02-03T00:18:51.790Z,82.56
2023-02-03T00:21:18.506Z,82.77
2023-02-03T00:23:45.204Z,82.10
2023-02-03T00:26:13.817Z,81.88
2023-02-03T00:28:40.421Z,83.40
2023-02-03T00:31:08.274Z,83.70
2023-02-03T00:33:35.071Z,82.63
2023-02-03T00:36:06.222Z,81.55
2023-02-03T00:38:32.821Z,81.31
2023-02-03T00:40:59.501Z,80.53
2023-02-03T00:43:26.231Z,81.17
2023-02-03T00:45:52.962Z,80.96
2023-02-03T00:48:20.714Z,81.93
2023-02-03T00:50:47.726Z,81.26
2023-02-03T00:53:14.375Z,81.29
2023-02-03T00:55:42.952Z,80.94
2023-02-03T00:58:09.609Z,82.78
2023-02-03T01:00:36.220Z,82.69
2023-02-03T01:03:03.514Z,82.44
2023-02-03T01:05:30.251Z,83.89
2023-02-03T01:07:56.933Z,83.49
2023-02-03T01:10:23.616Z,84.10
2023-02-03T01:12:50.370Z,83.84
2023-02-03T01:15:17.072Z,85.12
2023-02-03T01:17:43.782Z,85.73
2023-02-03T01:20:12.391Z,86.00
2023-02-03T01:22:38.952Z,86.06
2023-02-03T01:25:05.976Z,86.14
2023-02-03T01:27:33.315Z,85.32
2023-02-03T01:30:00.014Z,83.83
2023-02-03T01:32:27.168Z,84.15
2023-02-03T01:34:53.779Z,83.31
2023-02-03T01:37:20.537Z,83.21
2023-02-03T01:39:47.141Z,85.66
2023-02-03T01:42:14.463Z,85.45
2023-02-03T01:44:43.442Z,85.10
2023-02-03T01:47:16.360Z,83.72
2023-02-03T01:49:45.479Z,84.84
2023-02-03T01:52:12.168Z,84.42
2023-02-03T01:54:41.520Z,82.23
2023-02-03T01:57:13.455Z,81.93
2023-02-03T01:59:40.149Z,82.70
2023-02-03T02:02:06.844Z,82.80
2023-02-03T02:05:07.038Z,83.10
2023-02-03T02:07:34.525Z,83.05
2023-02-03T02:10:01.307Z,83.23
2023-02-03T02:12:27.895Z,82.56
2023-02-03T02:14:54.542Z,83.76
2023-02-03T02:17:58.650Z,84.16
2023-02-03T02:20:32.639Z,83.67
2023-02-03T02:23:17.846Z,83.03
2023-02-03T02:25:48.837Z,82.87
2023-02-03T02:28:44.711Z,82.10
2023-02-03T02:31:17.520Z,82.62
2023-02-03T02:33:45.995Z,84.21
2023-02-03T02:36:25.513Z,83.57
2023-02-03T02:38:59.704Z,82.34
2023-02-03T02:41:47.352Z,81.95
2023-02-03T02:44:17.788Z,82.08
2023-02-03T02:46:52.888Z,82.51
2023-02-03T02:49:40.201Z,81.69
2023-02-03T02:52:07.017Z,81.80
2023-02-03T02:54:33.777Z,81.43
2023-02-03T02:57:01.960Z,80.66
2023-02-03T02:59:28.729Z,82.01
2023-02-03T03:01:55.537Z,81.84
2023-02-03T03:04:25.077Z,82.38
2023-02-03T03:06:58.538Z,82.36
2023-02-03T03:09:36.092Z,81.79
2023-02-03T03:12:15.202Z,81.60
2023-02-03T03:14:44.867Z,81.07
2023-02-03T03:17:12.316Z,80.12
2023-02-03T03:19:41.938Z,79.99
2023-02-03T03:22:09.906Z,80.23
2023-02-03T03:24:49.293Z,79.83
2023-02-03T03:27:23.669Z,80.37
2023-02-03T03:29:58.493Z,80.71
2023-02-03T03:32:25.168Z,79.70
2023-02-03T03:34:51.820Z,80.22
2023-02-03T03:37:42.909Z,79.99
2023-02-03T03:40:29.063Z,80.44
2023-02-03T03:43:01.398Z,80.47
2023-02-03T03:45:49.456Z,80.09
2023-02-03T03:48:32.446Z,80.07
2023-02-03T03:51:20.136Z,79.83
2023-02-03T03:53:47.616Z,79.72
2023-02-03T03:56:17.595Z,80.34
2023-02-03T03:58:45.359Z,79.66
2023-02-03T04:01:12.172Z,78.80
2023-02-03T04:03:41.220Z,78.35
2023-02-03T04:06:07.912Z,78.59
2023-02-03T04:08:34.537Z,79.09
2023-02-03T04:11:01.284Z,79.11
2023-02-03T04:13:27.884Z,79.30
2023-02-03T04:15:54.623Z,80.44
2023-02-03T04:18:21.324Z,79.78
2023-02-03T04:20:48.410Z,79.75
2023-02-03T04:23:15.126Z,79.89
2023-02-03T04:25:42.019Z,78.63
2023-02-03T04:28:08.982Z,79.69
2023-02-03T04:30:35.650Z,79.32
2023-02-03T04:33:02.365Z,78.50
2023-02-03T04:35:29.072Z,79.51
2023-02-03T04:37:55.742Z,79.76
2023-02-03T04:40:22.341Z,78.45
2023-02-03T04:42:49.052Z,78.83
2023-02-03T04:45:15.712Z,78.51
2023-02-03T04:47:42.395Z,80.20
2023-02-03T04:50:09.381Z,79.73
2023-02-03T04:52:36.002Z,79.77
2023-02-03T04:55:04.030Z,79.49
2023-02-03T04:57:30.919Z,79.81
2023-02-03T04:59:57.568Z,78.64
2023-02-03T05:02:24.216Z,78.98
2023-02-03T05:04:50.935Z,78.84
2023-02-03T05:07:17.559Z,79.46
2023-02-03T05:09:44.202Z,78.20
2023-02-03T05:12:10.850Z,77.53
2023-02-03T05:14:37.527Z,78.65
2023-02-03T05:17:04.173Z,78.03
2023-02-03T05:19:30.833Z,78.87
2023-02-03T05:21:57.495Z,79.21
2023-02-03T05:24:24.107Z,78.97
2023-02-03T05:26:50.792Z,78.35
2023-02-03T05:29:17.398Z,79.05
2023-02-03T05:31:44.143Z,78.44
2023-02-03T05:34:10.803Z,79.01
2023-02-03T05:36:37.416Z,78.65
2023-02-03T05:39:04.293Z,78.84
2023-02-03T05:41:49.835Z,79.19
2023-02-03T05:44:16.532Z,78.71
2023-02-03T05:46:43.150Z,79.15
2023-02-03T05:49:09.861Z,78.16
2023-02-03T05:51:36.495Z,76.85
2023-02-03T05:54:03.171Z,77.21
2023-02-03T05:56:29.778Z,75.83
2023-02-03T05:58:56.420Z,77.83
2023-02-03T06:01:23.079Z,77.06
2023-02-03T06:03:49.977Z,77.19
2023-02-03T06:06:16.699Z,77.31
2023-02-03T06:08:43.544Z,78.50
2023-02-03T06:11:10.532Z,77.09
2023-02-03T06:13:37.188Z,77.70
2023-02-03T06:16:04.013Z,77.31
2023-02-03T06:18:30.682Z,76.49
2023-02-03T06:20:57.396Z,77.44
2023-02-03T06:23:24.064Z,77.87
2023-02-03T06:25:51.124Z,78.06
2023-02-03T06:28:18.141Z,76.92
2023-02-03T06:30:45.108Z,76.88
2023-02-03T06:33:11.935Z,76.96
2023-02-03T06:35:38.629Z,76.42
2023-02-03T06:38:05.373Z,76.55
2023-02-03T06:40:31.979Z,76.26
2023-02-03T06:42:58.708Z,75.53
2023-02-03T06:45:25.877Z,76.03
2023-02-03T06:47:52.691Z,75.70
2023-02-03T06:50:19.383Z,76.57
2023-02-03T06:52:46.021Z,76.69
2023-02-03T06:55:12.801Z,75.12
2023-02-03T06:57:46.782Z,74.46
2023-02-03T07:00:16.167Z,74.33
2023-02-03T07:02:44.263Z,74.92
2023-02-03T07:05:10.984Z,74.54
2023-02-03T07:07:39.503Z,74.80
2023-02-03T07:10:06.804Z,74.62
2023-02-03T07:12:33.428Z,73.99
2023-02-03T07:15:00.095Z,74.86
2023-02-03T07:17:26.872Z,74.13
2023-02-03T07:19:53.615Z,74.09
2023-02-03T07:22:20.370Z,73.94
2023-02-03T07:24:47.061Z,73.54
2023-02-03T07:27:13.653Z,73.09
2023-02-03T07:29:40.343Z,72.50
2023-02-03T07:32:07.210Z,72.22
2023-02-03T07:34:33.866Z,72.56
2023-02-03T07:37:00.562Z,71.82
2023-02-03T07:39:27.173Z,72.68
2023-02-03T07:41:53.805Z,71.34
2023-02-03T07:44:20.444Z,70.57
2023-02-03T07:46:47.201Z,71.03
2023-02-03T07:49:14.196Z,71.37
2023-02-03T07:51:41.078Z,71.73
2023-02-03T07:54:07.910Z,70.05
2023-02-03T07:56:34.546Z,70.96
2023-02-03T07:59:01.497Z,71.72
2023-02-03T08:01:28.441Z,70.86
2023-02-03T08:03:55.442Z,70.21
2023-02-03T08:06:22.230Z,70.36
2023-02-03T08:08:48.871Z,70.94
2023-02-03T08:11:15.526Z,70.61
2023-02-03T08:13:42.186Z,70.01
2023-02-03T08:16:08.913Z,70.32
2023-02-03T08:18:35.597Z,70.82
2023-02-03T08:21:04.127Z,70.58
2023-02-03T08:23:31.189Z,70.22
2023-02-03T08:25:57.992Z,70.41
2023-02-03T08:28:24.655Z,69.86
2023-02-03T08:30:51.383Z,70.07
2023-02-03T08:33:18.126Z,68.48
2023-02-03T08:35:48.810Z,68.50
2023-02-03T08:38:15.660Z,69.68
2023-02-03T08:40:42.345Z,67.70
2023-02-03T08:43:09.123Z,67.96
2023-02-03T08:45:35.804Z,69.25
2023-02-03T08:48:02.574Z,67.79
2023-02-03T08:50:29.491Z,67.57
2023-02-03T08:52:56.313Z,68.17
2023-02-03T08:55:22.997Z,68.06
2023-02-03T08:57:49.716Z,67.05
2023-02-03T09:00:16.708Z,67.08
2023-02-03T09:02:43.391Z,67.76
2023-02-03T09:05:10.267Z,67.30
2023-02-03T09:07:36.961Z,67.84
2023-02-03T09:10:03.922Z,68.29
2023-02-03T09:12:30.622Z,66.15
2023-02-03T09:14:57.324Z,67.57
2023-02-03T09:17:24.037Z,67.15
2023-02-03T09:19:50.761Z,67.63
2023-02-03T09:22:17.432Z,68.44
2023-02-03T09:24:44.277Z,67.19
2023-02-03T09:27:11.080Z,67.57
2023-02-03T09:29:37.916Z,66.86
2023-02-03T09:32:08.915Z,67.68
2023-02-03T09:34:35.756Z,67.97
2023-02-03T09:37:02.483Z,67.00
2023-02-03T09:39:29.282Z,67.41
2023-02-03T09:42:33.921Z,67.03
2023-02-03T09:45:18.434Z,65.47
2023-02-03T09:47:45.444Z,66.11
2023-02-03T09:50:20.333Z,64.82
2023-02-03T09:52:47.553Z,64.71
2023-02-03T09:55:37.386Z,64.18
2023-02-03T09:58:13.055Z,64.70
2023-02-03T10:00:47.400Z,65.59
2023-02-03T10:03:20.315Z,64.42
2023-02-03T10:06:14.053Z,65.08
2023-02-03T10:09:06.790Z,65.05
2023-02-03T10:11:54.768Z,65.51
2023-02-03T10:15:00.279Z,63.66
2023-02-03T10:17:36.720Z,62.81
2023-02-03T10:20:09.305Z,64.72
2023-02-03T10:22:40.636Z,64.82
2023-02-03T10:25:24.802Z,64.08
2023-02-03T10:27:52.219Z,64.32
2023-02-03T10:30:29.619Z,64.95
2023-02-03T10:33:00.497Z,62.31
2023-02-03T10:35:32.589Z,61.23
2023-02-03T10:37:59.479Z,59.15
2023-02-03T10:40:26.720Z,57.70
2023-02-03T10:43:12.021Z,57.92
2023-02-03T10:45:38.759Z,57.80
2023-02-03T10:48:07.295Z,58.34
2023-02-03T10:50:33.943Z,56.98
2023-02-03T10:53:23.284Z,59.17
2023-02-03T10:56:01.671Z,63.30
2023-02-03T10:58:29.541Z,64.95
2023-02-03T11:01:14.111Z,66.49
2023-02-03T11:03:54.588Z,67.08
2023-02-03T11:06:21.201Z,65.63
2023-02-03T11:08:48.726Z,65.62
2023-02-03T11:11:37.431Z,65.15
2023-02-03T11:14:04.060Z,63.10
2023-02-03T11:16:30.955Z,61.13
2023-02-03T11:19:03.817Z,59.56
2023-02-03T11:21:32.461Z,59.22
2023-02-03T11:24:21.038Z,62.34
2023-02-03T11:27:09.397Z,59.20
2023-02-03T11:29:37.480Z,60.06
2023-02-03T11:32:49.444Z,61.77
2023-02-03T11:35:26.289Z,62.61
2023-02-03T11:37:56.296Z,62.72
2023-02-03T11:40:26.331Z,62.16
2023-02-03T11:42:53.080Z,61.42
2023-02-03T11:45:29.454Z,61.34
2023-02-03T11:48:11.004Z,60.29
2023-02-03T11:50:54.977Z,57.78
2023-02-03T11:54:00.554Z,56.18
2023-02-03T11:56:39.199Z,54.19
2023-02-03T11:59:14.733Z,53.73
2023-02-03T12:01:57.599Z,54.89
2023-02-03T12:04:35.873Z,53.41
2023-02-03T12:07:17.660Z,54.71
2023-02-03T12:09:46.407Z,55.28
2023-02-03T12:12:20.111Z,55.41
2023-02-03T12:14:55.623Z,54.69
2023-02-03T12:17:25.407Z,51.59
2023-02-03T12:20:29.403Z,52.75
2023-02-03T12:23:33.065Z,52.64
2023-02-03T12:26:02.701Z,52.02
2023-02-03T12:28:43.849Z,50.81
2023-02-03T12:31:29.493Z,52.02
2023-02-03T12:34:13.504Z,52.05
2023-02-03T12:36:41.788Z,52.55
2023-02-03T12:39:15.159Z,53.13
2023-02-03T12:41:45.389Z,52.51
2023-02-03T12:44:38.205Z,52.84
2023-02-03T12:47:09.299Z,52.86
2023-02-03T12:49:52.636Z,51.81
2023-02-03T12:52:38.959Z,52.77
2023-02-03T12:55:27.391Z,51.88
2023-02-03T12:58:18.204Z,52.15
2023-02-03T13:01:06.276Z,52.77
2023-02-03T13:03:54.423Z,54.80
2023-02-03T13:06:27.971Z,56.51
2023-02-03T13:09:02.887Z,56.27
2023-02-03T13:11:46.644Z,55.10
2023-02-03T13:14:31.914Z,55.66
2023-02-03T13:17:01.954Z,53.30
2023-02-03T13:19:32.146Z,55.65
2023-02-03T13:21:58.794Z,54.87
2023-02-03T13:24:25.494Z,52.94
2023-02-03T13:27:26.222Z,51.36
2023-02-03T13:30:08.823Z,55.31
2023-02-03T13:32:56.894Z,53.57
2023-02-03T13:35:33.866Z,54.71
2023-02-03T13:38:13.312Z,54.07
2023-02-03T13:41:01.625Z,53.51
2023-02-03T13:43:38.252Z,54.30
2023-02-03T13:46:07.932Z,52.14
2023-02-03T13:48:35.513Z,53.15
2023-02-03T13:51:13.799Z,53.91
2023-02-03T13:53:40.799Z,53.39
2023-02-03T13:56:09.305Z,55.32
2023-02-03T13:58:38.175Z,56.36
2023-02-03T14:01:06.134Z,55.33
2023-02-03T14:03:42.015Z,55.30
2023-02-03T14:06:30.832Z,53.65
2023-02-03T14:09:00.508Z,54.56
2023-02-03T14:11:36.273Z,54.45
2023-02-03T14:14:05.715Z,54.76
2023-02-03T14:16:35.966Z,53.01
2023-02-03T14:19:02.695Z,54.67
2023-02-03T14:21:36.958Z,54.38
2023-02-03T14:24:09.290Z,55.53
2023-02-03T14:26:38.807Z,54.48
2023-02-03T14:29:06.172Z,55.69
2023-02-03T14:31:33.070Z,54.86
2023-02-03T14:34:10.096Z,55.16
2023-02-03T14:36:45.822Z,55.66
2023-02-03T14:39:18.665Z,55.38
2023-02-03T14:42:03.552Z,55.89
2023-02-03T14:45:07.490Z,55.13
2023-02-03T14:47:34.071Z,56.39
2023-02-03T14:50:34.158Z,55.31
2023-02-03T14:53:39.018Z,56.02
2023-02-03T14:56:13.940Z,56.00
2023-02-03T14:58:49.749Z,55.77
2023-02-03T15:01:42.863Z,56.75
2023-02-03T15:04:09.542Z,57.56
2023-02-03T15:06:41.197Z,57.84
2023-02-03T15:09:45.970Z,58.02
2023-02-03T15:12:19.224Z,58.51
2023-02-03T15:14:45.868Z,58.66
2023-02-03T15:17:18.874Z,58.45
2023-02-03T15:19:45.800Z,60.46
2023-02-03T15:22:26.663Z,60.46
2023-02-03T15:24:56.014Z,61.49
2023-02-03T15:27:27.313Z,60.99
2023-02-03T15:29:54.441Z,62.17
2023-02-03T15:32:31.041Z,62.74
2023-02-03T15:34:57.825Z,62.22
2023-02-03T15:37:48.231Z,63.86
2023-02-03T15:40:18.871Z,62.96
2023-02-03T15:42:58.933Z,62.93
2023-02-03T15:45:46.060Z,64.11
2023-02-03T15:48:23.975Z,64.29
2023-02-03T15:50:53.630Z,64.29
2023-02-03T15:53:29.678Z,63.81
2023-02-03T15:56:05.472Z,64.75
2023-02-03T15:58:44.808Z,64.57
2023-02-03T16:01:17.964Z,65.53
2023-02-03T16:03:55.111Z,65.12
2023-02-03T16:06:30.649Z,64.32
2023-02-03T16:08:58.836Z,66.06
2023-02-03T16:11:28.413Z,65.70
2023-02-03T16:13:59.740Z,65.38
2023-02-03T16:16:29.161Z,66.12
2023-02-03T16:19:01.531Z,65.30
2023-02-03T16:21:29.530Z,66.32
2023-02-03T16:23:56.412Z,66.95
2023-02-03T16:26:24.914Z,67.56
2023-02-03T16:29:16.323Z,67.24
2023-02-03T16:32:04.397Z,66.09
2023-02-03T16:34:49.537Z,65.23
2023-02-03T16:37:45.888Z,67.52
2023-02-03T16:40:31.962Z,66.55
2023-02-03T16:43:17.057Z,65.88
2023-02-03T16:46:02.507Z,66.41
2023-02-03T16:48:47.749Z,64.63
2023-02-03T16:51:18.516Z,66.61
2023-02-03T16:53:45.606Z,67.45
2023-02-03T16:56:12.491Z,67.90
2023-02-03T16:58:39.251Z,67.99
2023-02-03T17:01:06.468Z,67.15
2023-02-03T17:03:36.376Z,66.24
2023-02-03T17:06:08.111Z,66.78
2023-02-03T17:08:34.880Z,66.73
2023-02-03T17:11:13.527Z,66.09
2023-02-03T17:13:40.487Z,66.87
2023-02-03T17:16:14.659Z,66.18
2023-02-03T17:18:41.381Z,66.53
2023-02-03T17:21:09.963Z,65.92
2023-02-03T17:23:36.700Z,66.04
2023-02-03T17:26:03.468Z,65.58
2023-02-03T17:28:30.063Z,65.20
2023-02-03T17:30:58.355Z,64.04
2023-02-03T17:33:25.220Z,64.57
2023-02-03T17:36:03.624Z,65.60
2023-02-03T17:38:30.817Z,66.05
2023-02-03T17:54:39.721Z,65.45
2023-02-03T17:57:06.473Z,65.96
2023-02-03T17:59:35.040Z,64.26
2023-02-03T18:02:01.907Z,64.68
2023-02-03T18:04:28.680Z,64.78
2023-02-03T18:06:55.364Z,65.02
2023-02-03T18:09:22.062Z,65.48
2023-02-03T18:11:48.671Z,65.42
2023-02-03T18:14:16.323Z,64.36
2023-02-03T18:16:43.080Z,63.50
2023-02-03T18:19:12.985Z,64.30
2023-02-03T18:21:39.817Z,64.05
2023-02-03T18:24:06.676Z,64.35
2023-02-03T18:26:34.506Z,63.23
2023-02-03T18:29:01.347Z,64.48
2023-02-03T18:31:28.146Z,62.90
2023-02-03T18:33:54.913Z,63.18
2023-02-03T18:36:21.564Z,63.04
2023-02-03T18:38:48.401Z,62.34
2023-02-03T18:41:16.191Z,62.03
2023-02-03T18:43:42.943Z,61.30
2023-02-03T18:46:10.693Z,61.10
2023-02-03T18:48:37.443Z,60.77
2023-02-03T18:51:08.227Z,60.30
2023-02-03T18:53:34.958Z,61.13
2023-02-03T18:56:01.729Z,61.08
2023-02-03T18:58:28.686Z,61.39
2023-02-03T19:00:56.133Z,61.10
2023-02-03T19:03:24.843Z,61.97
2023-02-03T19:05:51.485Z,62.24
2023-02-03T19:08:18.147Z,62.28
2023-02-03T19:10:44.742Z,62.50
2023-02-03T19:13:11.649Z,62.84
2023-02-03T19:15:38.525Z,63.06
2023-02-03T19:18:05.293Z,62.26
2023-02-03T19:20:31.942Z,61.66
2023-02-03T19:22:58.727Z,61.93
2023-02-03T19:25:27.850Z,61.97
2023-02-03T19:27:54.547Z,61.56
2023-02-03T19:30:22.074Z,61.13
2023-02-03T19:32:48.740Z,61.93
2023-02-03T19:35:15.625Z,61.86
2023-02-03T19:37:42.397Z,61.36
2023-02-03T19:40:09.641Z,61.57
2023-02-03T19:42:36.332Z,61.41
2023-02-03T19:45:03.005Z,61.03
2023-02-03T19:47:29.669Z,60.21
2023-02-03T19:49:56.392Z,60.32
2023-02-03T19:52:23.028Z,59.37
2023-02-03T19:54:49.652Z,60.62
2023-02-03T19:57:16.429Z,60.19
2023-02-03T19:59:43.064Z,60.46
2023-02-03T20:02:14.301Z,59.15
2023-02-03T20:04:41.805Z,59.21
2023-02-03T20:07:08.554Z,58.63
2023-02-03T20:09:35.240Z,59.53
2023-02-03T20:12:01.942Z,58.71
2023-02-03T20:14:28.653Z,58.80
2023-02-03T20:16:55.361Z,58.26
2023-02-03T20:19:22.146Z,58.09
2023-02-03T20:21:48.798Z,57.81
2023-02-03T20:24:15.490Z,57.64
2023-02-03T20:26:42.084Z,56.77
2023-02-03T20:29:08.732Z,57.79
2023-02-03T20:31:35.753Z,57.63
2023-02-03T20:34:04.147Z,58.04
2023-02-03T20:36:30.925Z,58.71
2023-02-03T20:38:57.587Z,58.16
2023-02-03T20:41:24.260Z,57.75
2023-02-03T20:43:50.841Z,58.65
2023-02-03T20:46:18.472Z,58.28
2023-02-03T20:48:45.233Z,57.71
2023-02-03T20:51:13.044Z,57.19
2023-02-03T20:53:39.852Z,57.47
2023-02-03T20:56:14.053Z,57.35
2023-02-03T20:58:40.947Z,57.39
2023-02-03T21:01:33.901Z,55.41
2023-02-03T21:04:19.177Z,56.49
2023-02-03T21:06:45.837Z,57.16
2023-02-03T21:09:16.287Z,57.24
2023-02-03T21:11:43.237Z,57.43
2023-02-03T21:14:35.003Z,57.33
2023-02-03T21:17:01.765Z,56.44
2023-02-03T21:19:32.711Z,55.57
2023-02-03T21:21:59.940Z,56.45
2023-02-03T21:24:33.067Z,56.79
2023-02-03T21:27:00.344Z,56.81
2023-02-03T21:29:30.075Z,55.72
2023-02-03T21:31:56.982Z,56.72
2023-02-03T21:34:34.375Z,56.46
2023-02-03T21:37:37.074Z,55.86
2023-02-03T21:40:17.426Z,56.74
2023-02-03T21:42:45.964Z,56.53
2023-02-03T21:45:19.348Z,57.24
2023-02-03T21:47:49.145Z,56.28
2023-02-03T21:50:29.856Z,56.76
2023-02-03T21:53:14.277Z,57.87
2023-02-03T21:55:41.374Z,56.91
2023-02-03T21:58:34.689Z,57.46
2023-02-03T22:01:02.752Z,57.42
2023-02-03T22:03:40.737Z,58.29
2023-02-03T22:06:16.618Z,60.12
2023-02-03T22:08:47.844Z,60.05
2023-02-03T22:11:15.341Z,60.83
2023-02-03T22:13:42.786Z,62.10
2023-02-03T22:16:09.697Z,63.67
2023-02-03T22:18:37.615Z,65.33
2023-02-03T22:21:04.333Z,67.07
2023-02-03T22:23:31.785Z,68.24
2023-02-03T22:25:58.532Z,69.56
2023-02-03T22:28:25.399Z,70.10
2023-02-03T22:30:52.448Z,71.92
2023-02-03T22:33:19.255Z,71.95
2023-02-03T22:35:45.877Z,71.59
2023-02-03T22:38:12.626Z,72.01
2023-02-03T22:40:39.346Z,72.68
2023-02-03T22:43:06.033Z,72.35
2023-02-03T22:45:32.713Z,73.47
2023-02-03T22:48:00.382Z,75.03
2023-02-03T22:50:35.535Z,76.22
2023-02-03T22:53:07.063Z,77.13
2023-02-03T22:55:33.821Z,76.54
2023-02-03T22:58:00.498Z,76.14
2023-02-03T23:00:27.270Z,77.41
2023-02-03T23:02:54.401Z,78.86
2023-02-03T23:05:21.106Z,80.15
2023-02-03T23:07:48.157Z,80.72
2023-02-03T23:10:19.918Z,81.04
2023-02-03T23:12:46.628Z,80.94
2023-02-03T23:15:13.559Z,82.29
2023-02-03T23:17:40.531Z,83.50
2023-02-03T23:20:07.972Z,84.33
2023-02-03T23:22:34.856Z,82.84
2023-02-03T23:25:02.545Z,83.99
2023-02-03T23:27:29.263Z,85.06
2023-02-03T23:29:55.984Z,85.19
2023-02-03T23:32:22.833Z,86.47
2023-02-03T23:35:07.893Z,86.27
2023-02-03T23:37:34.485Z,86.77
2023-02-03T23:40:01.140Z,86.64
2023-02-03T23:42:27.738Z,86.40
2023-02-03T23:44:55.902Z,86.88
2023-02-03T23:47:22.650Z,87.18
2023-02-03T23:49:49.351Z,86.85
2023-02-03T23:52:15.995Z,87.79
2023-02-03T23:54:42.650Z,87.71
2023-02-03T23:57:09.452Z,86.66
2023-02-03T23:59:36.117Z,86.81
